sensor_id;sensor_type;location;lat;lon;timestamp;temperature;humidity
2190;DHT22;1101;51.056;7.262;2022-08-03T00:01:41;19.60;76.70
2190;DHT22;1101;51.056;7.262;2022-08-03T00:04:10;19.60;76.70
2190;DHT22;1101;51.056;7.262;2022-08-03T00:06:38;19.60;76.80
2190;DHT22;1101;51.056;7.262;2022-08-03T00:09:07;19.60;76.80
2190;DHT22;1101;51.056;7.262;2022-08-03T00:11:35;19.50;76.90
2190;DHT22;1101;51.056;7.262;2022-08-03T00:14:03;19.50;76.90
2190;DHT22;1101;51.056;7.262;2022-08-03T00:16:31;19.40;77.00
2190;DHT22;1101;51.056;7.262;2022-08-03T00:19:00;19.40;77.00
2190;DHT22;1101;51.056;7.262;2022-08-03T00:21:32;19.40;77.10
2190;DHT22;1101;51.056;7.262;2022-08-03T00:24:00;19.40;77.20
2190;DHT22;1101;51.056;7.262;2022-08-03T00:26:30;19.30;77.10
2190;DHT22;1101;51.056;7.262;2022-08-03T00:28:58;19.30;77.20
2190;DHT22;1101;51.056;7.262;2022-08-03T00:31:26;19.30;77.30
2190;DHT22;1101;51.056;7.262;2022-08-03T00:34:13;19.20;77.30
2190;DHT22;1101;51.056;7.262;2022-08-03T00:36:41;19.20;77.30
2190;DHT22;1101;51.056;7.262;2022-08-03T00:39:09;19.20;77.40
2190;DHT22;1101;51.056;7.262;2022-08-03T00:41:38;19.20;77.50
2190;DHT22;1101;51.056;7.262;2022-08-03T00:44:06;19.10;77.40
2190;DHT22;1101;51.056;7.262;2022-08-03T00:46:33;19.10;77.40
2190;DHT22;1101;51.056;7.262;2022-08-03T00:49:01;19.10;77.50
2190;DHT22;1101;51.056;7.262;2022-08-03T00:51:31;19.00;77.50
2190;DHT22;1101;51.056;7.262;2022-08-03T00:54:00;19.00;77.60
2190;DHT22;1101;51.056;7.262;2022-08-03T00:56:28;19.00;77.70
2190;DHT22;1101;51.056;7.262;2022-08-03T00:58:57;19.00;77.80
2190;DHT22;1101;51.056;7.262;2022-08-03T01:01:25;18.90;77.70
2190;DHT22;1101;51.056;7.262;2022-08-03T01:03:58;18.90;77.80
2190;DHT22;1101;51.056;7.262;2022-08-03T01:06:35;18.90;77.80
2190;DHT22;1101;51.056;7.262;2022-08-03T01:09:11;18.90;77.90
2190;DHT22;1101;51.056;7.262;2022-08-03T01:11:47;18.80;77.90
2190;DHT22;1101;51.056;7.262;2022-08-03T01:14:32;18.80;78.00
2190;DHT22;1101;51.056;7.262;2022-08-03T01:17:07;18.80;78.10
2190;DHT22;1101;51.056;7.262;2022-08-03T01:19:49;18.70;78.00
2190;DHT22;1101;51.056;7.262;2022-08-03T01:22:39;18.70;78.10
2190;DHT22;1101;51.056;7.262;2022-08-03T01:25:17;18.70;78.20
2190;DHT22;1101;51.056;7.262;2022-08-03T01:28:06;18.60;78.20
2190;DHT22;1101;51.056;7.262;2022-08-03T01:30:43;18.60;78.30
2190;DHT22;1101;51.056;7.262;2022-08-03T01:33:16;18.50;78.30
2190;DHT22;1101;51.056;7.262;2022-08-03T01:35:47;18.50;78.40
2190;DHT22;1101;51.056;7.262;2022-08-03T01:38:22;18.50;79.20
2190;DHT22;1101;51.056;7.262;2022-08-03T01:40:51;18.50;78.50
2190;DHT22;1101;51.056;7.262;2022-08-03T01:43:24;18.50;78.60
2190;DHT22;1101;51.056;7.262;2022-08-03T01:46:16;18.50;78.70
2190;DHT22;1101;51.056;7.262;2022-08-03T01:48:47;18.50;78.70
2190;DHT22;1101;51.056;7.262;2022-08-03T01:51:17;18.40;78.60
2190;DHT22;1101;51.056;7.262;2022-08-03T01:53:47;18.40;78.60
2190;DHT22;1101;51.056;7.262;2022-08-03T01:56:18;18.40;78.70
2190;DHT22;1101;51.056;7.262;2022-08-03T01:58:47;18.40;78.80
2190;DHT22;1101;51.056;7.262;2022-08-03T02:01:19;18.30;78.70
2190;DHT22;1101;51.056;7.262;2022-08-03T02:03:48;18.30;78.80
2190;DHT22;1101;51.056;7.262;2022-08-03T02:06:29;18.30;78.90
2190;DHT22;1101;51.056;7.262;2022-08-03T02:09:20;18.30;78.90
2190;DHT22;1101;51.056;7.262;2022-08-03T02:11:50;18.20;78.90
2190;DHT22;1101;51.056;7.262;2022-08-03T02:14:19;18.20;79.00
2190;DHT22;1101;51.056;7.262;2022-08-03T02:16:50;18.20;79.00
2190;DHT22;1101;51.056;7.262;2022-08-03T02:19:19;18.20;79.20
2190;DHT22;1101;51.056;7.262;2022-08-03T02:21:48;18.20;79.20
2190;DHT22;1101;51.056;7.262;2022-08-03T02:24:27;18.20;79.20
2190;DHT22;1101;51.056;7.262;2022-08-03T02:26:55;18.20;79.30
2190;DHT22;1101;51.056;7.262;2022-08-03T02:29:27;18.10;79.30
2190;DHT22;1101;51.056;7.262;2022-08-03T02:32:09;18.10;79.30
2190;DHT22;1101;51.056;7.262;2022-08-03T02:34:41;18.10;79.40
2190;DHT22;1101;51.056;7.262;2022-08-03T02:37:11;18.10;79.50
2190;DHT22;1101;51.056;7.262;2022-08-03T02:39:40;18.10;79.50
2190;DHT22;1101;51.056;7.262;2022-08-03T02:42:11;18.10;79.50
2190;DHT22;1101;51.056;7.262;2022-08-03T02:44:41;18.00;79.40
2190;DHT22;1101;51.056;7.262;2022-08-03T02:47:16;18.00;79.50
2190;DHT22;1101;51.056;7.262;2022-08-03T02:49:47;17.90;79.40
2190;DHT22;1101;51.056;7.262;2022-08-03T02:54:58;17.90;79.70
2190;DHT22;1101;51.056;7.262;2022-08-03T02:57:27;17.90;79.80
2190;DHT22;1101;51.056;7.262;2022-08-03T02:59:57;17.90;79.90
2190;DHT22;1101;51.056;7.262;2022-08-03T03:02:28;17.90;80.00
2190;DHT22;1101;51.056;7.262;2022-08-03T03:04:57;17.90;79.90
2190;DHT22;1101;51.056;7.262;2022-08-03T03:07:47;17.80;79.80
2190;DHT22;1101;51.056;7.262;2022-08-03T03:10:20;17.80;79.90
2190;DHT22;1101;51.056;7.262;2022-08-03T03:12:50;17.80;79.90
2190;DHT22;1101;51.056;7.262;2022-08-03T03:15:19;17.80;80.00
2190;DHT22;1101;51.056;7.262;2022-08-03T03:17:48;17.80;80.10
2190;DHT22;1101;51.056;7.262;2022-08-03T03:20:17;17.80;80.10
2190;DHT22;1101;51.056;7.262;2022-08-03T03:22:57;17.70;80.00
2190;DHT22;1101;51.056;7.262;2022-08-03T03:25:26;17.70;80.10
2190;DHT22;1101;51.056;7.262;2022-08-03T03:27:55;17.70;80.20
2190;DHT22;1101;51.056;7.262;2022-08-03T03:30:24;17.70;80.20
2190;DHT22;1101;51.056;7.262;2022-08-03T03:32:53;17.60;80.10
2190;DHT22;1101;51.056;7.262;2022-08-03T03:35:21;17.60;80.20
2190;DHT22;1101;51.056;7.262;2022-08-03T03:37:51;17.60;80.30
2190;DHT22;1101;51.056;7.262;2022-08-03T03:40:19;17.50;80.30
2190;DHT22;1101;51.056;7.262;2022-08-03T03:42:48;17.50;80.30
2190;DHT22;1101;51.056;7.262;2022-08-03T03:45:17;17.50;80.40
2190;DHT22;1101;51.056;7.262;2022-08-03T03:47:49;17.40;80.30
2190;DHT22;1101;51.056;7.262;2022-08-03T03:50:18;17.50;80.50
2190;DHT22;1101;51.056;7.262;2022-08-03T03:52:47;17.40;80.40
2190;DHT22;1101;51.056;7.262;2022-08-03T03:55:16;17.40;80.50
2190;DHT22;1101;51.056;7.262;2022-08-03T03:57:44;17.40;80.50
2190;DHT22;1101;51.056;7.262;2022-08-03T04:00:13;17.40;81.30
2190;DHT22;1101;51.056;7.262;2022-08-03T04:02:41;17.40;80.70
2190;DHT22;1101;51.056;7.262;2022-08-03T04:05:10;17.40;80.70
2190;DHT22;1101;51.056;7.262;2022-08-03T04:07:57;17.30;80.80
2190;DHT22;1101;51.056;7.262;2022-08-03T04:13:34;17.30;80.80
2190;DHT22;1101;51.056;7.262;2022-08-03T04:16:04;17.30;80.90
2190;DHT22;1101;51.056;7.262;2022-08-03T04:18:33;17.30;80.90
2190;DHT22;1101;51.056;7.262;2022-08-03T04:21:04;17.30;81.00
2190;DHT22;1101;51.056;7.262;2022-08-03T04:23:39;17.30;81.00
2190;DHT22;1101;51.056;7.262;2022-08-03T04:26:12;17.40;81.10
2190;DHT22;1101;51.056;7.262;2022-08-03T04:28:44;17.40;81.10
2190;DHT22;1101;51.056;7.262;2022-08-03T04:31:13;17.40;81.10
2190;DHT22;1101;51.056;7.262;2022-08-03T04:33:46;17.40;81.10
2190;DHT22;1101;51.056;7.262;2022-08-03T04:36:16;17.40;80.90
2190;DHT22;1101;51.056;7.262;2022-08-03T04:38:53;17.40;80.90
2190;DHT22;1101;51.056;7.262;2022-08-03T04:41:24;17.40;80.90
2190;DHT22;1101;51.056;7.262;2022-08-03T04:43:53;17.40;81.00
2190;DHT22;1101;51.056;7.262;2022-08-03T04:46:22;17.40;81.00
2190;DHT22;1101;51.056;7.262;2022-08-03T04:48:52;17.40;81.10
2190;DHT22;1101;51.056;7.262;2022-08-03T04:51:21;17.40;81.20
2190;DHT22;1101;51.056;7.262;2022-08-03T04:53:50;17.30;81.10
2190;DHT22;1101;51.056;7.262;2022-08-03T04:56:18;17.40;81.20
2190;DHT22;1101;51.056;7.262;2022-08-03T04:58:48;17.40;81.20
2190;DHT22;1101;51.056;7.262;2022-08-03T05:01:16;17.50;81.40
2190;DHT22;1101;51.056;7.262;2022-08-03T05:03:46;17.50;81.30
2190;DHT22;1101;51.056;7.262;2022-08-03T05:06:13;17.60;81.40
2190;DHT22;1101;51.056;7.262;2022-08-03T05:08:42;17.60;81.30
2190;DHT22;1101;51.056;7.262;2022-08-03T05:11:17;17.70;81.40
2190;DHT22;1101;51.056;7.262;2022-08-03T05:13:46;17.70;81.30
2190;DHT22;1101;51.056;7.262;2022-08-03T05:16:13;17.80;81.30
2190;DHT22;1101;51.056;7.262;2022-08-03T05:18:42;17.80;81.30
2190;DHT22;1101;51.056;7.262;2022-08-03T05:21:10;17.80;82.00
2190;DHT22;1101;51.056;7.262;2022-08-03T05:23:39;17.90;81.30
2190;DHT22;1101;51.056;7.262;2022-08-03T05:26:07;17.90;81.20
2190;DHT22;1101;51.056;7.262;2022-08-03T05:28:38;18.00;81.30
2190;DHT22;1101;51.056;7.262;2022-08-03T05:31:17;18.00;81.20
2190;DHT22;1101;51.056;7.262;2022-08-03T05:33:45;18.00;81.20
2190;DHT22;1101;51.056;7.262;2022-08-03T05:36:14;18.10;81.20
2190;DHT22;1101;51.056;7.262;2022-08-03T05:38:42;18.10;81.30
2190;DHT22;1101;51.056;7.262;2022-08-03T05:41:10;18.20;81.30
2190;DHT22;1101;51.056;7.262;2022-08-03T05:43:50;18.20;81.30
2190;DHT22;1101;51.056;7.262;2022-08-03T05:46:23;18.30;81.20
2190;DHT22;1101;51.056;7.262;2022-08-03T05:48:52;18.30;81.10
2190;DHT22;1101;51.056;7.262;2022-08-03T05:51:20;18.40;81.10
2190;DHT22;1101;51.056;7.262;2022-08-03T05:53:48;18.50;81.80
2190;DHT22;1101;51.056;7.262;2022-08-03T05:56:15;18.40;80.90
2190;DHT22;1101;51.056;7.262;2022-08-03T05:58:45;18.50;81.00
2190;DHT22;1101;51.056;7.262;2022-08-03T06:01:15;18.60;81.10
2190;DHT22;1101;51.056;7.262;2022-08-03T06:03:43;18.60;81.00
2190;DHT22;1101;51.056;7.262;2022-08-03T06:06:11;18.70;81.00
2190;DHT22;1101;51.056;7.262;2022-08-03T06:08:39;18.70;80.90
2190;DHT22;1101;51.056;7.262;2022-08-03T06:11:07;18.80;81.60
2190;DHT22;1101;51.056;7.262;2022-08-03T06:13:36;18.90;80.90
2190;DHT22;1101;51.056;7.262;2022-08-03T06:16:05;18.90;80.90
2190;DHT22;1101;51.056;7.262;2022-08-03T06:18:34;19.00;80.90
2190;DHT22;1101;51.056;7.262;2022-08-03T06:21:03;19.00;80.70
2190;DHT22;1101;51.056;7.262;2022-08-03T06:23:43;19.10;80.60
2190;DHT22;1101;51.056;7.262;2022-08-03T06:26:20;19.20;80.60
2190;DHT22;1101;51.056;7.262;2022-08-03T06:28:48;19.20;80.40
2190;DHT22;1101;51.056;7.262;2022-08-03T06:31:20;19.40;80.40
2190;DHT22;1101;51.056;7.262;2022-08-03T06:33:49;19.50;80.40
2190;DHT22;1101;51.056;7.262;2022-08-03T06:36:37;19.50;80.20
2190;DHT22;1101;51.056;7.262;2022-08-03T06:39:05;19.60;80.10
2190;DHT22;1101;51.056;7.262;2022-08-03T06:41:34;19.80;80.20
2190;DHT22;1101;51.056;7.262;2022-08-03T06:44:03;19.90;80.20
2190;DHT22;1101;51.056;7.262;2022-08-03T06:46:31;20.00;80.00
2190;DHT22;1101;51.056;7.262;2022-08-03T06:49:02;20.10;79.90
2190;DHT22;1101;51.056;7.262;2022-08-03T06:51:34;20.20;79.90
2190;DHT22;1101;51.056;7.262;2022-08-03T06:54:22;20.30;79.80
2190;DHT22;1101;51.056;7.262;2022-08-03T06:56:50;20.40;79.70
2190;DHT22;1101;51.056;7.262;2022-08-03T06:59:18;20.50;79.60
2190;DHT22;1101;51.056;7.262;2022-08-03T07:02:06;20.60;79.50
2190;DHT22;1101;51.056;7.262;2022-08-03T07:04:38;20.70;79.40
2190;DHT22;1101;51.056;7.262;2022-08-03T07:07:06;20.80;79.30
2190;DHT22;1101;51.056;7.262;2022-08-03T07:09:34;21.00;79.30
2190;DHT22;1101;51.056;7.262;2022-08-03T07:12:03;21.10;79.20
2190;DHT22;1101;51.056;7.262;2022-08-03T07:14:32;21.20;79.10
2190;DHT22;1101;51.056;7.262;2022-08-03T07:17:01;21.30;79.00
2190;DHT22;1101;51.056;7.262;2022-08-03T07:19:38;21.40;79.00
2190;DHT22;1101;51.056;7.262;2022-08-03T07:22:06;21.50;78.90
2190;DHT22;1101;51.056;7.262;2022-08-03T07:24:34;21.60;78.90
2190;DHT22;1101;51.056;7.262;2022-08-03T07:27:02;21.70;78.80
2190;DHT22;1101;51.056;7.262;2022-08-03T07:29:30;21.80;78.80
2190;DHT22;1101;51.056;7.262;2022-08-03T07:32:00;21.90;78.80
2190;DHT22;1101;51.056;7.262;2022-08-03T07:34:28;22.00;78.70
2190;DHT22;1101;51.056;7.262;2022-08-03T07:36:57;22.10;78.60
2190;DHT22;1101;51.056;7.262;2022-08-03T07:39:25;22.30;78.60
2190;DHT22;1101;51.056;7.262;2022-08-03T07:41:53;22.40;78.40
2190;DHT22;1101;51.056;7.262;2022-08-03T07:44:21;22.50;78.30
2190;DHT22;1101;51.056;7.262;2022-08-03T07:46:48;22.60;78.20
2190;DHT22;1101;51.056;7.262;2022-08-03T07:49:17;22.80;78.10
2190;DHT22;1101;51.056;7.262;2022-08-03T07:51:45;23.00;78.00
2190;DHT22;1101;51.056;7.262;2022-08-03T07:54:34;23.10;77.80
2190;DHT22;1101;51.056;7.262;2022-08-03T07:57:02;23.30;77.60
2190;DHT22;1101;51.056;7.262;2022-08-03T07:59:30;23.40;77.50
2190;DHT22;1101;51.056;7.262;2022-08-03T08:02:20;23.60;77.50
2190;DHT22;1101;51.056;7.262;2022-08-03T08:04:48;23.70;77.20
2190;DHT22;1101;51.056;7.262;2022-08-03T08:07:16;23.90;77.20
2190;DHT22;1101;51.056;7.262;2022-08-03T08:09:47;24.00;77.10
2190;DHT22;1101;51.056;7.262;2022-08-03T08:12:15;24.20;77.10
2190;DHT22;1101;51.056;7.262;2022-08-03T08:14:43;24.30;76.90
2190;DHT22;1101;51.056;7.262;2022-08-03T08:17:12;24.50;76.90
2190;DHT22;1101;51.056;7.262;2022-08-03T08:19:40;24.60;76.80
2190;DHT22;1101;51.056;7.262;2022-08-03T08:22:17;24.80;76.70
2190;DHT22;1101;51.056;7.262;2022-08-03T08:24:57;24.90;76.50
2190;DHT22;1101;51.056;7.262;2022-08-03T08:27:27;25.10;76.40
2190;DHT22;1101;51.056;7.262;2022-08-03T08:30:17;25.30;76.20
2190;DHT22;1101;51.056;7.262;2022-08-03T08:32:45;25.40;76.00
2190;DHT22;1101;51.056;7.262;2022-08-03T08:35:13;25.60;75.90
2190;DHT22;1101;51.056;7.262;2022-08-03T08:37:41;25.70;75.70
2190;DHT22;1101;51.056;7.262;2022-08-03T08:40:20;25.90;75.60
2190;DHT22;1101;51.056;7.262;2022-08-03T08:42:48;26.00;75.50
2190;DHT22;1101;51.056;7.262;2022-08-03T08:45:25;26.10;75.10
2190;DHT22;1101;51.056;7.262;2022-08-03T08:47:54;26.30;75.00
2190;DHT22;1101;51.056;7.262;2022-08-03T08:50:30;26.30;75.50
2190;DHT22;1101;51.056;7.262;2022-08-03T08:53:01;26.40;74.80
2190;DHT22;1101;51.056;7.262;2022-08-03T08:55:34;26.60;74.70
2190;DHT22;1101;51.056;7.262;2022-08-03T08:58:22;26.70;74.60
2190;DHT22;1101;51.056;7.262;2022-08-03T09:00:50;26.80;74.40
2190;DHT22;1101;51.056;7.262;2022-08-03T09:03:18;26.80;74.20
2190;DHT22;1101;51.056;7.262;2022-08-03T09:05:55;26.90;74.20
2190;DHT22;1101;51.056;7.262;2022-08-03T09:08:24;27.00;74.10
2190;DHT22;1101;51.056;7.262;2022-08-03T09:10:53;27.10;73.90
2190;DHT22;1101;51.056;7.262;2022-08-03T09:13:21;27.20;73.60
2190;DHT22;1101;51.056;7.262;2022-08-03T09:16:08;27.20;73.50
2190;DHT22;1101;51.056;7.262;2022-08-03T09:18:37;27.40;73.60
2190;DHT22;1101;51.056;7.262;2022-08-03T09:21:22;27.50;73.20
2190;DHT22;1101;51.056;7.262;2022-08-03T09:24:01;27.60;73.10
2190;DHT22;1101;51.056;7.262;2022-08-03T09:26:34;27.60;72.80
2190;DHT22;1101;51.056;7.262;2022-08-03T09:29:04;27.70;72.60
2190;DHT22;1101;51.056;7.262;2022-08-03T09:31:42;27.80;72.60
2190;DHT22;1101;51.056;7.262;2022-08-03T09:34:14;27.80;72.30
2190;DHT22;1101;51.056;7.262;2022-08-03T09:36:43;27.80;72.30
2190;DHT22;1101;51.056;7.262;2022-08-03T09:39:14;27.90;72.10
2190;DHT22;1101;51.056;7.262;2022-08-03T09:41:45;28.00;71.80
2190;DHT22;1101;51.056;7.262;2022-08-03T09:44:14;28.10;71.80
2190;DHT22;1101;51.056;7.262;2022-08-03T09:46:53;28.20;71.70
2190;DHT22;1101;51.056;7.262;2022-08-03T09:49:22;28.30;71.70
2190;DHT22;1101;51.056;7.262;2022-08-03T09:51:51;28.40;71.40
2190;DHT22;1101;51.056;7.262;2022-08-03T09:54:39;28.50;71.50
2190;DHT22;1101;51.056;7.262;2022-08-03T09:57:19;28.60;71.40
2190;DHT22;1101;51.056;7.262;2022-08-03T09:59:47;28.70;71.20
2190;DHT22;1101;51.056;7.262;2022-08-03T10:02:23;28.80;71.00
2190;DHT22;1101;51.056;7.262;2022-08-03T10:04:51;28.90;70.90
2190;DHT22;1101;51.056;7.262;2022-08-03T10:07:20;29.00;70.70
2190;DHT22;1101;51.056;7.262;2022-08-03T10:09:54;29.10;70.60
2190;DHT22;1101;51.056;7.262;2022-08-03T10:12:24;29.10;71.10
2190;DHT22;1101;51.056;7.262;2022-08-03T10:14:57;29.10;69.90
2190;DHT22;1101;51.056;7.262;2022-08-03T10:17:25;29.10;70.00
2190;DHT22;1101;51.056;7.262;2022-08-03T10:19:54;29.20;70.00
2190;DHT22;1101;51.056;7.262;2022-08-03T10:22:25;29.30;69.80
2190;DHT22;1101;51.056;7.262;2022-08-03T10:24:55;29.30;69.70
2190;DHT22;1101;51.056;7.262;2022-08-03T10:27:31;29.40;69.80
2190;DHT22;1101;51.056;7.262;2022-08-03T10:30:02;29.40;69.60
2190;DHT22;1101;51.056;7.262;2022-08-03T10:32:34;29.60;69.50
2190;DHT22;1101;51.056;7.262;2022-08-03T10:35:08;29.60;69.40
2190;DHT22;1101;51.056;7.262;2022-08-03T10:37:51;29.70;69.10
2190;DHT22;1101;51.056;7.262;2022-08-03T10:40:23;29.80;68.80
2190;DHT22;1101;51.056;7.262;2022-08-03T10:43:18;29.90;68.80
2190;DHT22;1101;51.056;7.262;2022-08-03T10:45:46;29.90;68.60
2190;DHT22;1101;51.056;7.262;2022-08-03T10:48:14;30.00;68.50
2190;DHT22;1101;51.056;7.262;2022-08-03T10:50:43;30.10;68.40
2190;DHT22;1101;51.056;7.262;2022-08-03T10:53:11;30.10;67.30
2190;DHT22;1101;51.056;7.262;2022-08-03T10:55:44;30.10;67.20
2190;DHT22;1101;51.056;7.262;2022-08-03T10:58:49;30.10;67.60
2190;DHT22;1101;51.056;7.262;2022-08-03T11:01:48;30.20;67.80
2190;DHT22;1101;51.056;7.262;2022-08-03T11:04:27;30.30;67.60
2190;DHT22;1101;51.056;7.262;2022-08-03T11:07:19;30.40;67.30
2190;DHT22;1101;51.056;7.262;2022-08-03T11:09:49;30.50;67.30
2190;DHT22;1101;51.056;7.262;2022-08-03T11:12:22;30.50;67.20
2190;DHT22;1101;51.056;7.262;2022-08-03T11:15:00;30.60;67.10
2190;DHT22;1101;51.056;7.262;2022-08-03T11:17:29;30.70;66.90
2190;DHT22;1101;51.056;7.262;2022-08-03T11:19:58;30.70;66.30
2190;DHT22;1101;51.056;7.262;2022-08-03T11:22:48;30.70;66.40
2190;DHT22;1101;51.056;7.262;2022-08-03T11:25:17;30.80;65.90
2190;DHT22;1101;51.056;7.262;2022-08-03T11:28:29;30.80;65.90
2190;DHT22;1101;51.056;7.262;2022-08-03T11:34:17;30.90;65.50
2190;DHT22;1101;51.056;7.262;2022-08-03T11:37:22;31.00;65.50
2190;DHT22;1101;51.056;7.262;2022-08-03T11:40:00;31.20;65.70
2190;DHT22;1101;51.056;7.262;2022-08-03T11:42:42;31.30;65.30
2190;DHT22;1101;51.056;7.262;2022-08-03T11:45:15;31.40;65.20
2190;DHT22;1101;51.056;7.262;2022-08-03T11:47:46;31.60;65.00
2190;DHT22;1101;51.056;7.262;2022-08-03T11:50:17;31.70;65.00
2190;DHT22;1101;51.056;7.262;2022-08-03T11:52:47;31.70;64.70
2190;DHT22;1101;51.056;7.262;2022-08-03T11:55:20;31.80;64.40
2190;DHT22;1101;51.056;7.262;2022-08-03T11:57:48;31.80;63.90
2190;DHT22;1101;51.056;7.262;2022-08-03T12:00:36;31.80;64.10
2190;DHT22;1101;51.056;7.262;2022-08-03T12:03:05;31.80;64.20
2190;DHT22;1101;51.056;7.262;2022-08-03T12:05:41;31.80;64.00
2190;DHT22;1101;51.056;7.262;2022-08-03T12:08:28;31.80;64.00
2190;DHT22;1101;51.056;7.262;2022-08-03T12:10:59;31.90;64.20
2190;DHT22;1101;51.056;7.262;2022-08-03T12:13:37;32.00;64.00
2190;DHT22;1101;51.056;7.262;2022-08-03T12:16:26;32.10;63.90
2190;DHT22;1101;51.056;7.262;2022-08-03T12:18:56;32.20;62.90
2190;DHT22;1101;51.056;7.262;2022-08-03T12:21:26;32.20;62.70
2190;DHT22;1101;51.056;7.262;2022-08-03T12:23:57;32.20;63.00
2190;DHT22;1101;51.056;7.262;2022-08-03T12:26:27;32.30;63.00
2190;DHT22;1101;51.056;7.262;2022-08-03T12:28:59;32.30;63.00
2190;DHT22;1101;51.056;7.262;2022-08-03T12:31:55;32.40;62.90
2190;DHT22;1101;51.056;7.262;2022-08-03T12:34:23;32.50;62.90
2190;DHT22;1101;51.056;7.262;2022-08-03T12:36:56;32.60;62.90
2190;DHT22;1101;51.056;7.262;2022-08-03T12:39:26;32.70;62.80
2190;DHT22;1101;51.056;7.262;2022-08-03T12:41:58;32.80;62.80
2190;DHT22;1101;51.056;7.262;2022-08-03T12:44:29;32.90;62.40
2190;DHT22;1101;51.056;7.262;2022-08-03T12:46:57;32.90;62.20
2190;DHT22;1101;51.056;7.262;2022-08-03T12:49:25;33.00;62.00
2190;DHT22;1101;51.056;7.262;2022-08-03T12:51:58;33.00;62.20
2190;DHT22;1101;51.056;7.262;2022-08-03T12:54:32;33.00;61.70
2190;DHT22;1101;51.056;7.262;2022-08-03T12:57:04;33.00;61.70
2190;DHT22;1101;51.056;7.262;2022-08-03T12:59:34;33.10;61.50
2190;DHT22;1101;51.056;7.262;2022-08-03T13:02:13;33.00;61.50
2190;DHT22;1101;51.056;7.262;2022-08-03T13:04:43;33.00;61.60
2190;DHT22;1101;51.056;7.262;2022-08-03T13:07:13;33.20;61.50
2190;DHT22;1101;51.056;7.262;2022-08-03T13:09:42;33.20;61.50
2190;DHT22;1101;51.056;7.262;2022-08-03T13:12:13;33.30;61.40
2190;DHT22;1101;51.056;7.262;2022-08-03T13:14:43;33.30;61.20
2190;DHT22;1101;51.056;7.262;2022-08-03T13:17:12;33.30;60.90
2190;DHT22;1101;51.056;7.262;2022-08-03T13:19:43;33.30;60.70
2190;DHT22;1101;51.056;7.262;2022-08-03T13:22:12;33.30;60.50
2190;DHT22;1101;51.056;7.262;2022-08-03T13:24:41;33.30;60.40
2190;DHT22;1101;51.056;7.262;2022-08-03T13:27:10;33.30;60.50
2190;DHT22;1101;51.056;7.262;2022-08-03T13:29:59;33.30;60.50
2190;DHT22;1101;51.056;7.262;2022-08-03T13:32:31;33.30;60.70
2190;DHT22;1101;51.056;7.262;2022-08-03T13:34:59;33.30;59.00
2190;DHT22;1101;51.056;7.262;2022-08-03T13:37:30;33.30;60.20
2190;DHT22;1101;51.056;7.262;2022-08-03T13:39:58;33.30;60.60
2190;DHT22;1101;51.056;7.262;2022-08-03T13:42:32;33.30;60.50
2190;DHT22;1101;51.056;7.262;2022-08-03T13:45:02;33.40;59.00
2190;DHT22;1101;51.056;7.262;2022-08-03T13:47:30;33.40;60.10
2190;DHT22;1101;51.056;7.262;2022-08-03T13:49:58;33.40;60.30
2190;DHT22;1101;51.056;7.262;2022-08-03T13:52:33;33.50;60.20
2190;DHT22;1101;51.056;7.262;2022-08-03T13:55:02;33.40;59.50
2190;DHT22;1101;51.056;7.262;2022-08-03T13:57:30;33.40;59.70
2190;DHT22;1101;51.056;7.262;2022-08-03T14:00:19;33.30;59.70
2190;DHT22;1101;51.056;7.262;2022-08-03T14:02:55;33.20;59.70
2190;DHT22;1101;51.056;7.262;2022-08-03T14:05:32;33.10;59.30
2190;DHT22;1101;51.056;7.262;2022-08-03T14:08:01;33.00;59.80
2190;DHT22;1101;51.056;7.262;2022-08-03T14:10:32;33.10;59.90
2190;DHT22;1101;51.056;7.262;2022-08-03T14:13:01;33.20;59.40
2190;DHT22;1101;51.056;7.262;2022-08-03T14:15:33;33.20;59.10
2190;DHT22;1101;51.056;7.262;2022-08-03T14:18:05;33.20;59.30
2190;DHT22;1101;51.056;7.262;2022-08-03T14:20:38;33.20;59.50
2190;DHT22;1101;51.056;7.262;2022-08-03T14:23:20;33.20;58.90
2190;DHT22;1101;51.056;7.262;2022-08-03T14:25:48;33.20;59.00
2190;DHT22;1101;51.056;7.262;2022-08-03T14:28:20;33.20;59.10
2190;DHT22;1101;51.056;7.262;2022-08-03T14:30:51;33.30;59.20
2190;DHT22;1101;51.056;7.262;2022-08-03T14:33:19;33.30;59.20
2190;DHT22;1101;51.056;7.262;2022-08-03T14:35:47;33.40;59.30
2190;DHT22;1101;51.056;7.262;2022-08-03T14:38:15;33.60;59.50
2190;DHT22;1101;51.056;7.262;2022-08-03T14:40:43;33.70;59.30
2190;DHT22;1101;51.056;7.262;2022-08-03T14:43:12;33.80;59.20
2190;DHT22;1101;51.056;7.262;2022-08-03T14:45:40;33.90;59.10
2190;DHT22;1101;51.056;7.262;2022-08-03T14:48:09;33.90;58.70
2190;DHT22;1101;51.056;7.262;2022-08-03T14:50:57;33.90;58.70
2190;DHT22;1101;51.056;7.262;2022-08-03T14:55:53;33.90;58.40
2190;DHT22;1101;51.056;7.262;2022-08-03T14:58:22;33.90;58.00
2190;DHT22;1101;51.056;7.262;2022-08-03T15:00:53;34.00;58.40
2190;DHT22;1101;51.056;7.262;2022-08-03T15:03:23;34.10;58.30
2190;DHT22;1101;51.056;7.262;2022-08-03T15:05:53;34.20;58.10
2190;DHT22;1101;51.056;7.262;2022-08-03T15:08:22;34.20;58.00
2190;DHT22;1101;51.056;7.262;2022-08-03T15:10:50;34.10;57.90
2190;DHT22;1101;51.056;7.262;2022-08-03T15:13:18;34.20;58.00
2190;DHT22;1101;51.056;7.262;2022-08-03T15:15:47;34.30;57.50
2190;DHT22;1101;51.056;7.262;2022-08-03T15:18:17;34.40;57.80
2190;DHT22;1101;51.056;7.262;2022-08-03T15:20:46;34.40;57.70
2190;DHT22;1101;51.056;7.262;2022-08-03T15:23:16;34.40;57.70
2190;DHT22;1101;51.056;7.262;2022-08-03T15:25:45;34.50;57.70
2190;DHT22;1101;51.056;7.262;2022-08-03T15:28:33;34.60;57.50
2190;DHT22;1101;51.056;7.262;2022-08-03T15:31:03;34.60;57.50
2190;DHT22;1101;51.056;7.262;2022-08-03T15:33:31;34.60;57.50
2190;DHT22;1101;51.056;7.262;2022-08-03T15:36:02;34.60;57.10
2190;DHT22;1101;51.056;7.262;2022-08-03T15:38:30;34.60;57.10
2190;DHT22;1101;51.056;7.262;2022-08-03T15:41:00;34.60;57.10
2190;DHT22;1101;51.056;7.262;2022-08-03T15:43:28;34.50;56.90
2190;DHT22;1101;51.056;7.262;2022-08-03T15:45:56;34.50;57.20
2190;DHT22;1101;51.056;7.262;2022-08-03T15:48:45;34.50;57.20
2190;DHT22;1101;51.056;7.262;2022-08-03T15:51:14;34.60;57.80
2190;DHT22;1101;51.056;7.262;2022-08-03T15:53:42;34.60;57.30
2190;DHT22;1101;51.056;7.262;2022-08-03T15:56:10;34.80;57.20
2190;DHT22;1101;51.056;7.262;2022-08-03T15:58:44;34.70;57.20
2190;DHT22;1101;51.056;7.262;2022-08-03T16:01:32;34.70;56.80
2190;DHT22;1101;51.056;7.262;2022-08-03T16:04:00;34.80;56.90
2190;DHT22;1101;51.056;7.262;2022-08-03T16:06:29;34.70;56.80
2190;DHT22;1101;51.056;7.262;2022-08-03T16:09:02;34.70;56.70
2190;DHT22;1101;51.056;7.262;2022-08-03T16:11:50;34.60;57.30
2190;DHT22;1101;51.056;7.262;2022-08-03T16:14:18;34.50;56.50
2190;DHT22;1101;51.056;7.262;2022-08-03T16:17:05;34.40;56.50
2190;DHT22;1101;51.056;7.262;2022-08-03T16:19:33;34.20;56.50
2190;DHT22;1101;51.056;7.262;2022-08-03T16:22:02;34.10;56.70
2190;DHT22;1101;51.056;7.262;2022-08-03T16:24:31;34.00;56.80
2190;DHT22;1101;51.056;7.262;2022-08-03T16:27:04;33.90;56.60
2190;DHT22;1101;51.056;7.262;2022-08-03T16:29:43;33.80;56.70
2190;DHT22;1101;51.056;7.262;2022-08-03T16:32:11;33.70;56.80
2190;DHT22;1101;51.056;7.262;2022-08-03T16:34:38;33.60;56.90
2190;DHT22;1101;51.056;7.262;2022-08-03T16:37:08;33.50;56.20
2190;DHT22;1101;51.056;7.262;2022-08-03T16:39:56;33.30;56.80
2190;DHT22;1101;51.056;7.262;2022-08-03T16:42:23;33.20;57.00
2190;DHT22;1101;51.056;7.262;2022-08-03T16:44:51;33.10;57.20
2190;DHT22;1101;51.056;7.262;2022-08-03T16:47:19;33.00;57.20